Time;durP1;ratioP1;P1;durP2;ratioP2;P2;SDS_P1;SDS_P2;PMS_P1;PMS_P2;Temp;Humidity;BMP_temperature;BMP_pressure;BME280_temperature;BME280_humidity;BME280_pressure;Samples;Min_cycle;Max_cycle;Signal;HPM_P1;HPM_P2
2022/05/19 00:07:31;;;;;;;3.70;2.30;;;22.20;97.90;;;;;;6646372;89;20209;-79
2022/05/19 00:17:31;;;;;;;6.40;2.20;;;22.10;98.90;;;;;;6635686;88;20204;-79
2022/05/19 00:28:13;;;;;;;4.90;2.30;;;22.00;99.80;;;;;;6683639;78;20671;-79
2022/05/19 00:38:14;;;;;;;3.53;2.30;;;21.90;99.90;;;;;;6654533;88;20192;-78
2022/05/19 00:48:22;;;;;;;4.32;2.40;;;21.70;99.90;;;;;;6652695;89;20203;-79
2022/05/19 00:58:28;;;;;;;4.37;2.37;;;21.70;99.90;;;;;;6652661;88;20236;-79
2022/05/19 01:08:44;;;;;;;4.05;2.30;;;21.50;99.90;;;;;;6654001;88;20770;-78
2022/05/19 01:18:45;;;;;;;4.82;2.30;;;21.40;99.90;;;;;;6654168;88;20187;-78
2022/05/19 01:28:46;;;;;;;5.93;2.45;;;21.20;99.90;;;;;;6653791;88;20612;-79
2022/05/19 01:38:50;;;;;;;4.87;2.78;;;21.10;99.90;;;;;;6654619;89;20220;-78
2022/05/19 01:48:54;;;;;;;5.60;2.60;;;21.00;99.90;;;;;;6652210;88;20204;-78
2022/05/19 01:59:16;;;;;;;;;;;21.00;99.90;;;;;;6652936;89;20210;-79
2022/05/19 02:09:35;;;;;;;6.68;2.70;;;20.80;99.90;;;;;;6638955;88;20536;-79
2022/05/19 02:19:42;;;;;;;4.30;2.35;;;20.70;99.90;;;;;;6635260;89;20262;-79
2022/05/19 02:29:42;;;;;;;6.03;2.92;;;20.80;99.90;;;;;;6636144;89;20379;-79
2022/05/19 02:39:43;;;;;;;3.85;2.50;;;20.70;99.90;;;;;;6635458;89;20240;-80
2022/05/19 02:49:44;;;;;;;9.27;2.60;;;20.60;99.90;;;;;;6635159;89;20607;-80
2022/05/19 02:59:44;;;;;;;4.00;2.45;;;20.50;99.90;;;;;;6639532;89;20200;-79
2022/05/19 03:09:45;;;;;;;4.25;2.42;;;20.30;99.90;;;;;;6644049;89;20283;-80
2022/05/19 03:19:45;;;;;;;4.62;2.70;;;20.40;99.90;;;;;;6633058;89;20304;-77
2022/05/19 03:29:47;;;;;;;4.80;2.40;;;20.30;99.90;;;;;;6634022;89;20917;-77
2022/05/19 03:39:48;;;;;;;4.37;2.47;;;20.30;99.90;;;;;;6634912;89;20331;-77
2022/05/19 03:49:49;;;;;;;6.07;2.80;;;20.20;99.90;;;;;;6635173;89;20180;-79
2022/05/19 03:59:49;;;;;;;5.30;2.50;;;20.10;99.90;;;;;;6638463;89;20200;-77
2022/05/19 04:09:50;;;;;;;4.78;2.42;;;20.20;99.90;;;;;;6634950;89;20214;-78
2022/05/19 04:19:50;;;;;;;3.60;2.40;;;20.10;99.90;;;;;;6633938;89;20263;-77
2022/05/19 04:29:50;;;;;;;7.07;2.62;;;20.20;99.90;;;;;;6650708;89;20200;-78
2022/05/19 04:39:51;;;;;;;4.40;2.67;;;20.10;99.90;;;;;;6637446;88;20184;-78
2022/05/19 04:49:52;;;;;;;6.60;2.70;;;20.10;99.90;;;;;;6653818;89;20298;-78
2022/05/19 04:59:52;;;;;;;5.47;2.60;;;20.10;99.90;;;;;;6649790;89;20317;-77
2022/05/19 05:09:53;;;;;;;3.53;2.33;;;20.10;99.90;;;;;;6652938;88;20682;-77
2022/05/19 05:19:53;;;;;;;4.32;2.60;;;20.30;99.90;;;;;;6652888;89;20326;-77
2022/05/19 05:29:54;;;;;;;3.83;2.70;;;20.40;99.90;;;;;;6655029;89;20212;-77
2022/05/19 05:39:55;;;;;;;4.23;2.57;;;20.50;99.90;;;;;;6641997;89;20197;-77
2022/05/19 05:49:55;;;;;;;6.25;2.40;;;20.70;99.90;;;;;;6649783;89;20553;-78
2022/05/19 05:59:56;;;;;;;5.23;2.33;;;21.10;99.90;;;;;;6657750;89;20233;-78
2022/05/19 06:09:57;;;;;;;5.70;2.40;;;21.50;99.90;;;;;;6646137;89;20918;-79
2022/05/19 06:19:57;;;;;;;5.20;2.30;;;21.90;99.90;;;;;;6654513;89;20205;-79
2022/05/19 06:29:58;;;;;;;6.15;2.67;;;22.50;99.90;;;;;;6659313;89;20217;-79
2022/05/19 06:39:59;;;;;;;5.05;2.40;;;23.20;99.90;;;;;;6662682;88;20242;-79
2022/05/19 06:49:59;;;;;;;6.35;2.33;;;23.80;99.90;;;;;;6667958;88;20199;-78
2022/05/19 07:00:00;;;;;;;4.75;2.35;;;24.10;99.90;;;;;;6662900;88;20185;-78
2022/05/19 07:10:00;;;;;;;3.25;2.22;;;24.40;99.90;;;;;;6668921;89;20443;-79
2022/05/19 07:30:20;;;;;;;4.93;2.10;;;25.00;99.10;;;;;;6658088;88;20198;-79
2022/05/19 07:40:21;;;;;;;4.32;2.35;;;24.80;99.30;;;;;;6668322;88;20189;-77
2022/05/19 07:50:21;;;;;;;7.32;2.42;;;24.80;99.50;;;;;;6656474;89;20193;-78
2022/05/19 08:00:22;;;;;;;7.05;2.62;;;25.10;99.40;;;;;;6671066;89;20206;-77
2022/05/19 08:10:26;;;;;;;9.30;2.72;;;25.40;99.10;;;;;;6670835;89;20281;-77
2022/05/19 08:20:28;;;;;;;4.85;2.55;;;25.80;97.60;;;;;;6660551;89;20198;-80
2022/05/19 08:30:28;;;;;;;6.90;2.62;;;26.00;97.70;;;;;;6656719;89;20216;-77
2022/05/19 08:40:31;;;;;;;6.50;2.60;;;26.70;95.60;;;;;;6665629;88;20214;-77
2022/05/19 08:50:54;;;;;;;5.62;2.47;;;27.30;95.30;;;;;;6658725;89;20181;-77
2022/05/19 09:01:04;;;;;;;5.78;2.50;;;27.30;94.80;;;;;;6664749;88;20194;-80
2022/05/19 09:11:20;;;;;;;4.40;2.47;;;27.10;94.90;;;;;;6667985;89;20758;-79
2022/05/19 09:21:21;;;;;;;4.45;2.42;;;27.20;93.50;;;;;;6652044;89;20744;-79
2022/05/19 09:31:42;;;;;;;4.10;2.60;;;27.20;94.00;;;;;;6666908;89;20213;-77
2022/05/19 09:41:51;;;;;;;4.47;2.70;;;27.40;93.20;;;;;;6665183;88;20309;-79
2022/05/19 09:51:52;;;;;;;4.70;2.53;;;27.30;93.90;;;;;;6666594;89;20189;-80
2022/05/19 10:02:06;;;;;;;4.28;2.67;;;28.10;93.00;;;;;;6665673;88;20326;-78
2022/05/19 10:12:11;;;;;;;6.10;2.80;;;28.40;93.10;;;;;;6664177;88;20211;-78
2022/05/19 10:22:39;;;;;;;4.45;2.50;;;27.80;93.50;;;;;;6652461;89;20279;-80
2022/05/19 10:32:56;;;;;;;5.82;2.78;;;27.80;94.00;;;;;;6660310;89;20185;-79
2022/05/19 10:43:38;;;;;;;7.32;2.60;;;27.50;94.60;;;;;;6660629;89;20200;-79
2022/05/19 10:54:17;;;;;;;7.10;2.92;;;26.90;94.90;;;;;;6663900;89;20683;-79
2022/05/19 11:04:55;;;;;;;10.85;2.90;;;27.50;95.30;;;;;;6666040;89;20328;-79
2022/05/19 11:15:33;;;;;;;6.00;2.90;;;28.00;94.40;;;;;;6666676;89;20225;-80
2022/05/19 11:36:42;;;;;;;6.78;3.00;;;27.20;95.30;;;;;;6666405;89;20221;-80
2022/05/19 11:47:00;;;;;;;4.62;3.00;;;27.00;97.50;;;;;;6669031;89;20885;-79
2022/05/19 11:57:09;;;;;;;4.78;3.10;;;28.20;95.90;;;;;;6659263;89;20254;-79
2022/05/19 12:07:09;;;;;;;4.45;3.00;;;29.00;94.80;;;;;;6664336;89;20197;-78
2022/05/19 12:17:15;;;;;;;6.72;2.87;;;30.00;93.70;;;;;;6654859;89;20611;-79
2022/05/19 12:27:20;;;;;;;5.57;2.83;;;29.90;93.40;;;;;;6664228;89;20283;-78
2022/05/19 12:37:45;;;;;;;5.25;3.12;;;30.20;93.20;;;;;;6653262;88;20189;-80
2022/05/19 12:48:00;;;;;;;5.75;2.75;;;31.20;92.70;;;;;;6663018;89;20226;-81
2022/05/19 12:58:33;;;;;;;6.22;2.90;;;30.90;92.30;;;;;;6663966;89;20276;-79
2022/05/19 13:08:39;;;;;;;4.23;2.60;;;30.60;92.40;;;;;;6664144;89;21134;-80
2022/05/19 13:18:46;;;;;;;5.40;2.50;;;31.60;92.10;;;;;;6659014;88;20509;-79
2022/05/19 13:39:32;;;;;;;5.93;2.62;;;31.20;91.10;;;;;;6655417;89;20192;-77
2022/05/19 13:49:32;;;;;;;70.50;6.03;;;31.90;88.90;;;;;;6664355;89;20335;-78
2022/05/19 13:59:33;;;;;;;20.60;3.03;;;28.70;92.00;;;;;;6659299;89;20220;-79
2022/05/19 14:09:48;;;;;;;13.55;2.20;;;25.30;99.90;;;;;;6662985;89;20207;-77
2022/05/19 14:19:50;;;;;;;24.80;4.68;;;23.20;99.90;;;;;;6661578;89;20613;-77
2022/05/19 14:29:53;;;;;;;13.15;4.40;;;20.30;99.90;;;;;;6651925;89;20370;-78
2022/05/19 14:43:04;;;;;;;14.70;4.37;;;18.80;99.90;;;;;;6658120;89;20237;-78
2022/05/19 14:50:24;;;;;;;;;;;18.60;99.90;;;;;;6653409;89;20270;-78
2022/05/19 15:00:29;;;;;;;12.70;4.43;;;18.50;99.90;;;;;;6650069;89;20101;-77
2022/05/19 15:10:30;;;;;;;;;;;18.70;99.90;;;;;;6650362;89;20200;-78
2022/05/19 15:20:32;;;;;;;11.45;3.85;;;18.50;99.90;;;;;;6650803;89;20082;-77
2022/05/19 15:30:35;;;;;;;8.10;3.58;;;18.50;99.90;;;;;;6651368;88;20196;-80
2022/05/19 15:40:36;;;;;;;12.23;4.35;;;18.20;99.90;;;;;;6641141;88;20235;-78
2022/05/19 15:50:46;;;;;;;9.43;3.47;;;18.40;99.90;;;;;;6637445;89;20648;-78
2022/05/19 16:00:47;;;;;;;7.25;3.53;;;18.60;99.90;;;;;;6635188;89;20342;-79
2022/05/19 16:10:49;;;;;;;11.12;2.90;;;18.60;99.90;;;;;;6652001;89;20564;-80
2022/05/19 16:20:51;;;;;;;7.65;2.80;;;18.60;99.90;;;;;;6652340;89;20216;-79
2022/05/19 16:30:51;;;;;;;9.95;3.25;;;18.80;99.90;;;;;;6634299;89;20230;-78
2022/05/19 16:40:52;;;;;;;6.47;2.42;;;19.00;99.90;;;;;;6650560;89;20195;-80
2022/05/19 16:50:53;;;;;;;8.00;2.15;;;19.20;99.90;;;;;;6652735;88;20188;-78
2022/05/19 17:01:01;;;;;;;6.35;2.00;;;19.70;99.90;;;;;;6653118;88;20244;-79
2022/05/19 17:11:01;;;;;;;5.85;1.70;;;20.00;99.90;;;;;;6654309;89;20219;-77
2022/05/19 17:21:02;;;;;;;7.20;3.25;;;20.70;99.90;;;;;;6653030;88;20228;-79
2022/05/19 17:31:03;;;;;;;7.40;2.27;;;20.20;99.90;;;;;;6669287;88;20220;-78
2022/05/19 17:41:04;;;;;;;6.37;2.72;;;19.90;99.90;;;;;;6651223;89;20543;-78
2022/05/19 17:51:07;;;;;;;9.57;3.60;;;19.90;99.90;;;;;;6650372;89;21105;-78
2022/05/19 18:01:07;;;;;;;4.50;2.28;;;20.00;99.90;;;;;;6655081;89;20821;-77
2022/05/19 18:11:09;;;;;;;4.82;1.70;;;19.80;99.90;;;;;;6640602;89;20239;-78
2022/05/19 18:21:10;;;;;;;6.43;1.90;;;19.90;99.90;;;;;;6635095;89;20221;-77
2022/05/19 18:31:11;;;;;;;3.87;1.42;;;19.80;99.90;;;;;;6639173;89;20209;-78
2022/05/19 18:51:31;;;;;;;4.80;1.98;;;20.50;99.90;;;;;;6654867;89;20202;-79
2022/05/19 19:01:32;;;;;;;5.12;1.90;;;20.00;99.90;;;;;;6657532;89;20209;-78
2022/05/19 19:11:32;;;;;;;5.75;2.40;;;19.60;99.90;;;;;;6650848;89;20197;-80
2022/05/19 19:21:37;;;;;;;6.75;2.30;;;19.50;99.90;;;;;;6641301;88;20199;-78
2022/05/19 19:31:39;;;;;;;4.40;2.50;;;19.10;99.90;;;;;;6640599;89;20328;-79
2022/05/19 19:41:40;;;;;;;5.85;2.80;;;19.00;99.90;;;;;;6640964;89;20791;-80
2022/05/19 19:52:02;;;;;;;8.85;2.65;;;18.90;99.90;;;;;;6640185;88;20339;-78
2022/05/19 20:02:04;;;;;;;7.22;3.00;;;18.70;99.90;;;;;;6640344;89;20287;-78
2022/05/19 20:12:07;;;;;;;4.53;2.70;;;18.70;99.90;;;;;;6655199;89;20222;-78
2022/05/19 20:22:08;;;;;;;5.43;3.03;;;18.70;99.90;;;;;;6659565;89;20222;-78
2022/05/19 20:32:09;;;;;;;8.20;3.87;;;18.60;99.90;;;;;;6658932;89;20196;-78
2022/05/19 20:42:10;;;;;;;7.18;3.28;;;18.50;99.90;;;;;;6658375;89;20184;-79
2022/05/19 20:52:11;;;;;;;6.47;3.90;;;18.40;99.90;;;;;;6649489;89;20239;-78
2022/05/19 21:02:11;;;;;;;8.38;3.80;;;18.30;99.90;;;;;;6646636;89;20500;-80
2022/05/19 21:12:12;;;;;;;7.95;4.37;;;18.20;99.90;;;;;;6644674;89;20284;-79
2022/05/19 21:22:13;;;;;;;6.30;3.53;;;18.30;99.90;;;;;;6645028;89;20208;-82
2022/05/19 21:32:13;;;;;;;6.33;3.57;;;18.30;99.90;;;;;;6646475;89;20571;-81
2022/05/19 21:42:15;;;;;;;7.78;3.58;;;18.20;99.90;;;;;;6648375;89;20312;-81
2022/05/19 22:02:34;;;;;;;5.60;3.47;;;18.10;99.90;;;;;;6651942;89;20224;-80
2022/05/19 22:12:35;;;;;;;7.70;3.75;;;18.00;99.90;;;;;;6652226;89;20396;-81
2022/05/19 22:22:36;;;;;;;8.48;3.95;;;18.00;99.90;;;;;;6643195;89;20750;-79
2022/05/19 22:32:36;;;;;;;6.18;3.80;;;17.90;99.90;;;;;;6643252;89;21011;-78
2022/05/19 22:42:40;;;;;;;5.57;4.18;;;17.90;99.90;;;;;;6644658;89;20281;-78
2022/05/19 22:52:42;;;;;;;7.43;4.90;;;17.90;99.90;;;;;;6642917;89;20195;-78
2022/05/19 23:02:43;;;;;;;9.23;4.60;;;18.00;99.90;;;;;;6642648;89;20402;-78
2022/05/19 23:12:44;;;;;;;7.43;3.58;;;17.90;99.90;;;;;;6643074;89;20204;-79
2022/05/19 23:22:46;;;;;;;4.65;3.25;;;17.80;99.90;;;;;;6642495;89;20249;-79
2022/05/19 23:43:06;;;;;;;4.30;2.97;;;18.00;99.90;;;;;;6652457;89;20204;-79
2022/05/19 23:53:06;;;;;;;4.90;3.40;;;17.90;99.90;;;;;;6641815;89;20731;-78
